Jj Sky — VRJA6 — position and weather

sailwx.info

Track history (hours):
 
Tides and Currents Weather Stations Pressure Air Temp Water Temp Dewpoint Dewpoint Depression Visibility Wind Speed Wind Dir Waves Ship Positions

Jj Sky

Last reported at 2014-Sep-30 06:24 UTC. Time now 2014-Sep-30 20:04 UTC.
Position N 31°19' E 121°43'.

Length 148 m; draft 7 m.

Type: Ship. MMSI: 477397500.

Date/timePositionNaut miles runAvg speedWind from/ knotsBaromVisibWave heightAir tempDewpointWater temp
2014-Sep-30 06:24N 31°19' E 121°43'3 0.9
2014-Sep-30 03:24N 31°20' E 121°40'0 0.0
2014-Sep-30 01:11N 31°20' E 121°40'0 0.0
2014-Sep-29 23:19N 31°20' E 121°40'0 0.0
2014-Sep-29 18:23N 31°20' E 121°40'2 0.9
2014-Sep-29 16:32N 31°20' E 121°42'  
2014-Sep-27 04:11N 35°06' E 139°43'1016.1
2014-Sep-27 03:34N 35°16' E 139°46'1212.4
2014-Sep-27 02:34N 35°28' E 139°42'1 0.6
2014-Sep-27 01:32N 35°27' E 139°41'0 0.1
2014-Sep-27 00:31N 35°27' E 139°41'0 0.1
2014-Sep-26 23:28N 35°27' E 139°41'1 1.3
2014-Sep-26 22:33N 35°27' E 139°43'9 8.3
2014-Sep-26 21:31N 35°35' E 139°48'3 0.5
2014-Sep-26 15:05N 35°37' E 139°46'0 0.0
2014-Sep-26 14:33N 35°37' E 139°46'1010.3
2014-Sep-26 13:33N 35°28' E 139°51'1312.6
2014-Sep-26 12:34N 35°16' E 139°46'  
2014-Sep-24 02:24N 31°17' E 121°44'7 7.9
2014-Sep-24 01:30N 31°22' E 121°38'0 0.0
2014-Sep-24 00:30N 31°22' E 121°38'0 0.0
2014-Sep-23 23:29N 31°22' E 121°38'0 0.0
2014-Sep-23 22:17N 31°22' E 121°38'0 0.0
2014-Sep-23 21:10N 31°22' E 121°38'0 0.0
2014-Sep-23 14:07N 31°22' E 121°38'0 0.1
2014-Sep-23 12:25N 31°22' E 121°38'0 0.0
2014-Sep-23 11:30N 31°22' E 121°38'0 0.0
2014-Sep-23 10:24N 31°22' E 121°38'0 0.1
2014-Sep-23 09:23N 31°22' E 121°38'0 0.0
2014-Sep-23 07:10N 31°22' E 121°38'0 0.0
2014-Sep-23 01:22N 31°22' E 121°38'0 0.1
2014-Sep-22 23:15N 31°22' E 121°38'0 0.0
2014-Sep-22 21:32N 31°22' E 121°38'0 0.1
2014-Sep-22 18:25N 31°22' E 121°38'0 0.0
2014-Sep-22 15:30N 31°22' E 121°38'0 0.0
2014-Sep-22 14:18N 31°22' E 121°38'0 0.0
2014-Sep-22 08:15N 31°22' E 121°38'0 0.0
2014-Sep-22 07:04N 31°22' E 121°38'2 3.5
2014-Sep-22 06:33N 31°21' E 121°40'1 0.1
2014-Sep-21 19:32N 31°20' E 121°40'0 0.1
2014-Sep-21 18:30N 31°20' E 121°40'0 0.0
2014-Sep-21 17:05N 31°20' E 121°40'0 0.0
2014-Sep-21 15:28N 31°20' E 121°40'0 0.0
2014-Sep-21 14:10N 31°20' E 121°40'0 0.3
2014-Sep-21 13:26N 31°20' E 121°40'  
Track history (hours):
 
Tides and Currents Weather Stations Pressure Air Temp Water Temp Dewpoint Dewpoint Depression Visibility Wind Speed Wind Dir Waves Ship Positions

Jj Sky

Last reported at 2014-Sep-30 06:24 UTC. Time now 2014-Sep-30 20:04 UTC.
Position N 31°19' E 121°43'.

Length 148 m; draft 7 m.

Type: Ship. MMSI: 477397500.

Date/timePositionNaut miles runAvg speedWind from/ knotsBaromVisibWave heightAir tempDewpointWater temp
2014-Sep-30 06:24N 31°19' E 121°43'3 0.9
2014-Sep-30 03:24N 31°20' E 121°40'0 0.0
2014-Sep-30 01:11N 31°20' E 121°40'0 0.0
2014-Sep-29 23:19N 31°20' E 121°40'0 0.0
2014-Sep-29 18:23N 31°20' E 121°40'2 0.9
2014-Sep-29 16:32N 31°20' E 121°42'  
2014-Sep-27 04:11N 35°06' E 139°43'1016.1
2014-Sep-27 03:34N 35°16' E 139°46'1212.4
2014-Sep-27 02:34N 35°28' E 139°42'1 0.6
2014-Sep-27 01:32N 35°27' E 139°41'0 0.1
2014-Sep-27 00:31N 35°27' E 139°41'0 0.1
2014-Sep-26 23:28N 35°27' E 139°41'1 1.3
2014-Sep-26 22:33N 35°27' E 139°43'9 8.3
2014-Sep-26 21:31N 35°35' E 139°48'3 0.5
2014-Sep-26 15:05N 35°37' E 139°46'0 0.0
2014-Sep-26 14:33N 35°37' E 139°46'1010.3
2014-Sep-26 13:33N 35°28' E 139°51'1312.6
2014-Sep-26 12:34N 35°16' E 139°46'  
2014-Sep-24 02:24N 31°17' E 121°44'7 7.9
2014-Sep-24 01:30N 31°22' E 121°38'0 0.0
2014-Sep-24 00:30N 31°22' E 121°38'0 0.0
2014-Sep-23 23:29N 31°22' E 121°38'0 0.0
2014-Sep-23 22:17N 31°22' E 121°38'0 0.0
2014-Sep-23 21:10N 31°22' E 121°38'0 0.0
2014-Sep-23 14:07N 31°22' E 121°38'0 0.1
2014-Sep-23 12:25N 31°22' E 121°38'0 0.0
2014-Sep-23 11:30N 31°22' E 121°38'0 0.0
2014-Sep-23 10:24N 31°22' E 121°38'0 0.1
2014-Sep-23 09:23N 31°22' E 121°38'0 0.0
2014-Sep-23 07:10N 31°22' E 121°38'0 0.0
2014-Sep-23 01:22N 31°22' E 121°38'0 0.1
2014-Sep-22 23:15N 31°22' E 121°38'0 0.0
2014-Sep-22 21:32N 31°22' E 121°38'0 0.1
2014-Sep-22 18:25N 31°22' E 121°38'0 0.0
2014-Sep-22 15:30N 31°22' E 121°38'0 0.0
2014-Sep-22 14:18N 31°22' E 121°38'0 0.0
2014-Sep-22 08:15N 31°22' E 121°38'0 0.0
2014-Sep-22 07:04N 31°22' E 121°38'2 3.5
2014-Sep-22 06:33N 31°21' E 121°40'1 0.1
2014-Sep-21 19:32N 31°20' E 121°40'0 0.1
2014-Sep-21 18:30N 31°20' E 121°40'0 0.0
2014-Sep-21 17:05N 31°20' E 121°40'0 0.0
2014-Sep-21 15:28N 31°20' E 121°40'0 0.0
2014-Sep-21 14:10N 31°20' E 121°40'0 0.3
2014-Sep-21 13:26N 31°20' E 121°40'  

Dump ship's entire track history